Chamberlain Brothers Ranch, WY

08:53 AM MDT die 30o August, anno 2016 (GMT -0600)
Converse County | | Change Station

Elev 4928 ft 42.80 °N, 105.38 °W | Updated 1 hour ago

Clear
Serena
57 °F
Feels Like 57 °F
N
0
Ventus Variabilis Ventus from Aquilo

Hodie
High -- | Low -- °F
--% Chance of Precip.
Yesterday
High -- | Low -- °F
Precip. -- in
Pressio 30.19 in
Visibilitas 8.0 milia passuum
Clouds Serena
Frigus in quo Ros apparet 51 °F
Umor 81%
Rainfall 0.00 in
Snow Depth Not available.
6:25 AM 7:39 PM
Waning Crescent, 3% visible
METAR KDGW 301353Z AUTO 00000KT 8SM CLR 14/11 A3033 RMK AO2 SLP223 T01390106
Pressio 30.19 in
Visibilitas 8.0 milia passuum
Clouds Serena
Frigus in quo Ros apparet 51 °F
Umor 81%
Rainfall 0.00 in
Snow Depth Not available.
6:25 AM 7:39 PM
Waning Crescent, 3% visible
METAR KDGW 301353Z AUTO 00000KT 8SM CLR 14/11 A3033 RMK AO2 SLP223 T01390106

10-Day Weather Forecast

Almanac

Astronomy

Aug. 30, 2016 Rise Set
Actual Time
Civil Twilight
Nautical Twilight
Astronomical Twilight
Moon
Length Of Visible Light
Length of Day
Tomorrow will be .
, % of the Moon is Illuminated

Today's Extremes

State Highs State Lows

Community

WunderPhotos

Upload Photos

1,935,849 photos uploaded!

WunderBlog® & News

Nearby

Air Quality

  Air Quality AQ Index Pollutant
Not available.

Snow Depth

Station Depth Elevation

Earthquake Activity

City Distance Mag. Time & Date
Minimum magnitude displayed is 2.5.

Coastal Water Temperatures

Locus Calor

Stations

Nearby Weather Stations

Station Location Temp Frigus Venti Frigus in quo Ros apparet Umor Ventus Precip. Elev Renovata Type
                   

Watches & Warnings

There are currently no watches in effect.